Elka Glory — SYCB — position and weather

sailwx.info

Track history (hours):
 
Tides and Currents Weather Stations Pressure Air Temp Water Temp Dewpoint Dewpoint Depression Visibility Wind Speed Wind Dir Waves Ship Positions

Elka Glory

Last reported at 2017-Sep-13 19:13 UTC. Time now 2017-Sep-24 16:01 UTC.
Position N 36°28' W 015°35'.
Warning: this ship's position is 10 days out of date.

Length 184 m; draft 11.8 m.

Type: Ship. MMSI: 237956000.

Date/timePositionNaut miles runAvg speedWind from/ knotsBaromVisibWave heightAir tempDewpointWater temp
2017-Sep-13 19:13N 36°28' W 015°35'  
2017-Sep-10 16:27N 49°14' W 005°02'4612.5
2017-Sep-10 12:48N 49°39' W 004°03'412.5
2017-Sep-10 12:31N 49°41' W 003°59'612.3
2017-Sep-10 12:01N 49°45' W 003°51'612.1
2017-Sep-10 11:31N 49°48' W 003°43'611.8
2017-Sep-10 11:01N 49°51' W 003°35'611.3
2017-Sep-10 10:30N 49°53' W 003°27'510.9
2017-Sep-10 10:01N 49°55' W 003°18'510.8
2017-Sep-10 09:30N 49°56' W 003°10'510.6
2017-Sep-10 09:00N 49°57' W 003°02'510.7
2017-Sep-10 08:31N 49°59' W 002°54'510.9
2017-Sep-10 08:01N 50°01' W 002°47'6914.8
2017-Sep-10 03:22N 50°20' W 001°03'2514.7
2017-Sep-10 01:41N 50°27' W 000°26'213.2
2017-Sep-10 01:30N 50°27' W 000°22'612.9
2017-Sep-10 01:00N 50°29' W 000°12'612.3
2017-Sep-10 00:30N 50°31' W 000°03'611.6
2017-Sep-10 00:00N 50°32' E 000°06'611.1
2017-Sep-09 23:31N 50°34' E 000°14'510.7
2017-Sep-09 23:00N 50°35' E 000°22'510.7
2017-Sep-09 22:30N 50°37' E 000°30'611.4
2017-Sep-09 22:00N 50°39' E 000°39'612.4
2017-Sep-09 21:30N 50°42' E 000°47'713.4
2017-Sep-09 21:00N 50°46' E 000°56'714.3
2017-Sep-09 20:30N 50°50' E 001°06'714.7
2017-Sep-09 20:00N 50°53' E 001°15'815.1
2017-Sep-09 19:30N 50°59' E 001°23'714.5
2017-Sep-09 19:00N 51°04' E 001°31'713.6
2017-Sep-09 18:30N 51°09' E 001°39'612.6
2017-Sep-09 18:00N 51°14' E 001°45'612.0
2017-Sep-09 17:30N 51°19' E 001°50'611.2
2017-Sep-09 17:00N 51°24' E 001°55'510.3
2017-Sep-09 16:30N 51°25' E 002°03'612.6
2017-Sep-09 16:00N 51°22' E 002°12'510.7
2017-Sep-09 15:30N 51°21' E 002°20'2 3.4
2017-Sep-09 15:00N 51°22' E 002°23'1 2.5
2017-Sep-09 14:30N 51°22' E 002°25'3 6.5
2017-Sep-09 13:59N 51°23' E 002°30'4 8.3
2017-Sep-09 13:30N 51°25' E 002°35'0 0.5
2017-Sep-09 12:57N 51°25' E 002°35'0 0.1
2017-Sep-09 12:29N 51°25' E 002°35'0 0.1
2017-Sep-09 11:58N 51°25' E 002°35'0 0.0
2017-Sep-09 11:28N 51°25' E 002°35'0 0.0
2017-Sep-09 10:58N 51°25' E 002°35'0 0.0
2017-Sep-09 10:28N 51°25' E 002°35'0 0.0
2017-Sep-09 10:00N 51°25' E 002°35'0 0.0
2017-Sep-09 09:30N 51°25' E 002°35'0 0.0
2017-Sep-09 09:00N 51°25' E 002°35'0 0.0
2017-Sep-09 08:30N 51°25' E 002°35'0 0.1
2017-Sep-09 08:00N 51°25' E 002°35'0 0.0
2017-Sep-09 07:29N 51°25' E 002°35'0 0.1
2017-Sep-09 06:59N 51°25' E 002°35'0 0.0
2017-Sep-09 06:29N 51°25' E 002°35'0 0.0
2017-Sep-09 05:59N 51°25' E 002°35'0 0.0
2017-Sep-09 05:28N 51°25' E 002°35'0 0.0
2017-Sep-09 04:58N 51°25' E 002°35'0 0.0
2017-Sep-09 04:25N 51°25' E 002°35'0 0.0
2017-Sep-09 03:58N 51°25' E 002°35'0 0.0
2017-Sep-09 03:28N 51°25' E 002°35'0 0.0
2017-Sep-09 03:01N 51°25' E 002°35'0 0.1
2017-Sep-09 02:30N 51°25' E 002°35'0 0.0
2017-Sep-09 01:57N 51°25' E 002°35'0 0.2
2017-Sep-09 01:30N 51°25' E 002°35'1 2.3
2017-Sep-09 01:00N 51°24' E 002°36'3 6.3
2017-Sep-09 00:30N 51°22' E 002°40'4 7.1
2017-Sep-09 00:00N 51°22' E 002°46'612.3
2017-Sep-08 23:30N 51°23' E 002°56'612.0
2017-Sep-08 23:00N 51°24' E 003°05'612.3
2017-Sep-08 22:30N 51°25' E 003°15'612.2
2017-Sep-08 22:00N 51°25' E 003°25'612.0
2017-Sep-08 21:30N 51°26' E 003°34'3 6.3
2017-Sep-08 21:00N 51°27' E 003°39'4 8.6
2017-Sep-08 20:30N 51°23' E 003°43'613.0
2017-Sep-08 20:00N 51°21' E 003°53'612.6
2017-Sep-08 19:30N 51°26' E 003°60'510.4
2017-Sep-08 19:00N 51°22' E 004°05'510.3
2017-Sep-08 18:30N 51°23' E 004°13'4 7.4
2017-Sep-08 18:00N 51°21' E 004°17'0 0.5
2017-Sep-08 17:30N 51°21' E 004°17'0 0.0
2017-Sep-08 17:00N 51°21' E 004°17'0 0.0
2017-Sep-08 16:30N 51°21' E 004°17'0 0.6
2017-Sep-08 15:59N 51°21' E 004°18'1 2.4
2017-Sep-08 15:30N 51°20' E 004°18'3 5.0
2017-Sep-08 15:00N 51°17' E 004°20'1 1.8
2017-Sep-08 14:28N 51°16' E 004°21'0 0.0
2017-Sep-08 13:47N 51°16' E 004°21'0 0.0
2017-Sep-08 13:24N 51°16' E 004°21'0 0.0
2017-Sep-08 13:00N 51°16' E 004°21'0 0.0
2017-Sep-08 12:30N 51°16' E 004°21'0 0.0
2017-Sep-08 03:00N 51°16' E 004°21'0 0.0
2017-Sep-08 02:27N 51°16' E 004°21'0 0.0
2017-Sep-08 02:00N 51°16' E 004°21'0 0.0
2017-Sep-08 00:13N 51°16' E 004°21'0 0.0
2017-Sep-07 22:35N 51°16' E 004°21'0 0.0
2017-Sep-07 22:11N 51°16' E 004°21'0 0.0
2017-Sep-07 19:55N 51°16' E 004°21'0 0.0
2017-Sep-07 02:46N 51°16' E 004°21'0 0.0
2017-Sep-06 09:29N 51°16' E 004°21'0 0.0
2017-Sep-05 16:41N 51°16' E 004°21'0 0.0
2017-Sep-05 16:29N 51°16' E 004°21'0 0.0
2017-Sep-05 00:25N 51°16' E 004°21'  
Track history (hours):
 
Tides and Currents Weather Stations Pressure Air Temp Water Temp Dewpoint Dewpoint Depression Visibility Wind Speed Wind Dir Waves Ship Positions

Elka Glory

Last reported at 2017-Sep-13 19:13 UTC. Time now 2017-Sep-24 16:01 UTC.
Position N 36°28' W 015°35'.
Warning: this ship's position is 10 days out of date.

Length 184 m; draft 11.8 m.

Type: Ship. MMSI: 237956000.

Date/timePositionNaut miles runAvg speedWind from/ knotsBaromVisibWave heightAir tempDewpointWater temp
2017-Sep-13 19:13N 36°28' W 015°35'  
2017-Sep-10 16:27N 49°14' W 005°02'4612.5
2017-Sep-10 12:48N 49°39' W 004°03'412.5
2017-Sep-10 12:31N 49°41' W 003°59'612.3
2017-Sep-10 12:01N 49°45' W 003°51'612.1
2017-Sep-10 11:31N 49°48' W 003°43'611.8
2017-Sep-10 11:01N 49°51' W 003°35'611.3
2017-Sep-10 10:30N 49°53' W 003°27'510.9
2017-Sep-10 10:01N 49°55' W 003°18'510.8
2017-Sep-10 09:30N 49°56' W 003°10'510.6
2017-Sep-10 09:00N 49°57' W 003°02'510.7
2017-Sep-10 08:31N 49°59' W 002°54'510.9
2017-Sep-10 08:01N 50°01' W 002°47'6914.8
2017-Sep-10 03:22N 50°20' W 001°03'2514.7
2017-Sep-10 01:41N 50°27' W 000°26'213.2
2017-Sep-10 01:30N 50°27' W 000°22'612.9
2017-Sep-10 01:00N 50°29' W 000°12'612.3
2017-Sep-10 00:30N 50°31' W 000°03'611.6
2017-Sep-10 00:00N 50°32' E 000°06'611.1
2017-Sep-09 23:31N 50°34' E 000°14'510.7
2017-Sep-09 23:00N 50°35' E 000°22'510.7
2017-Sep-09 22:30N 50°37' E 000°30'611.4
2017-Sep-09 22:00N 50°39' E 000°39'612.4
2017-Sep-09 21:30N 50°42' E 000°47'713.4
2017-Sep-09 21:00N 50°46' E 000°56'714.3
2017-Sep-09 20:30N 50°50' E 001°06'714.7
2017-Sep-09 20:00N 50°53' E 001°15'815.1
2017-Sep-09 19:30N 50°59' E 001°23'714.5
2017-Sep-09 19:00N 51°04' E 001°31'713.6
2017-Sep-09 18:30N 51°09' E 001°39'612.6
2017-Sep-09 18:00N 51°14' E 001°45'612.0
2017-Sep-09 17:30N 51°19' E 001°50'611.2
2017-Sep-09 17:00N 51°24' E 001°55'510.3
2017-Sep-09 16:30N 51°25' E 002°03'612.6
2017-Sep-09 16:00N 51°22' E 002°12'510.7
2017-Sep-09 15:30N 51°21' E 002°20'2 3.4
2017-Sep-09 15:00N 51°22' E 002°23'1 2.5
2017-Sep-09 14:30N 51°22' E 002°25'3 6.5
2017-Sep-09 13:59N 51°23' E 002°30'4 8.3
2017-Sep-09 13:30N 51°25' E 002°35'0 0.5
2017-Sep-09 12:57N 51°25' E 002°35'0 0.1
2017-Sep-09 12:29N 51°25' E 002°35'0 0.1
2017-Sep-09 11:58N 51°25' E 002°35'0 0.0
2017-Sep-09 11:28N 51°25' E 002°35'0 0.0
2017-Sep-09 10:58N 51°25' E 002°35'0 0.0
2017-Sep-09 10:28N 51°25' E 002°35'0 0.0
2017-Sep-09 10:00N 51°25' E 002°35'0 0.0
2017-Sep-09 09:30N 51°25' E 002°35'0 0.0
2017-Sep-09 09:00N 51°25' E 002°35'0 0.0
2017-Sep-09 08:30N 51°25' E 002°35'0 0.1
2017-Sep-09 08:00N 51°25' E 002°35'0 0.0
2017-Sep-09 07:29N 51°25' E 002°35'0 0.1
2017-Sep-09 06:59N 51°25' E 002°35'0 0.0
2017-Sep-09 06:29N 51°25' E 002°35'0 0.0
2017-Sep-09 05:59N 51°25' E 002°35'0 0.0
2017-Sep-09 05:28N 51°25' E 002°35'0 0.0
2017-Sep-09 04:58N 51°25' E 002°35'0 0.0
2017-Sep-09 04:25N 51°25' E 002°35'0 0.0
2017-Sep-09 03:58N 51°25' E 002°35'0 0.0
2017-Sep-09 03:28N 51°25' E 002°35'0 0.0
2017-Sep-09 03:01N 51°25' E 002°35'0 0.1
2017-Sep-09 02:30N 51°25' E 002°35'0 0.0
2017-Sep-09 01:57N 51°25' E 002°35'0 0.2
2017-Sep-09 01:30N 51°25' E 002°35'1 2.3
2017-Sep-09 01:00N 51°24' E 002°36'3 6.3
2017-Sep-09 00:30N 51°22' E 002°40'4 7.1
2017-Sep-09 00:00N 51°22' E 002°46'612.3
2017-Sep-08 23:30N 51°23' E 002°56'612.0
2017-Sep-08 23:00N 51°24' E 003°05'612.3
2017-Sep-08 22:30N 51°25' E 003°15'612.2
2017-Sep-08 22:00N 51°25' E 003°25'612.0
2017-Sep-08 21:30N 51°26' E 003°34'3 6.3
2017-Sep-08 21:00N 51°27' E 003°39'4 8.6
2017-Sep-08 20:30N 51°23' E 003°43'613.0
2017-Sep-08 20:00N 51°21' E 003°53'612.6
2017-Sep-08 19:30N 51°26' E 003°60'510.4
2017-Sep-08 19:00N 51°22' E 004°05'510.3
2017-Sep-08 18:30N 51°23' E 004°13'4 7.4
2017-Sep-08 18:00N 51°21' E 004°17'0 0.5
2017-Sep-08 17:30N 51°21' E 004°17'0 0.0
2017-Sep-08 17:00N 51°21' E 004°17'0 0.0
2017-Sep-08 16:30N 51°21' E 004°17'0 0.6
2017-Sep-08 15:59N 51°21' E 004°18'1 2.4
2017-Sep-08 15:30N 51°20' E 004°18'3 5.0
2017-Sep-08 15:00N 51°17' E 004°20'1 1.8
2017-Sep-08 14:28N 51°16' E 004°21'0 0.0
2017-Sep-08 13:47N 51°16' E 004°21'0 0.0
2017-Sep-08 13:24N 51°16' E 004°21'0 0.0
2017-Sep-08 13:00N 51°16' E 004°21'0 0.0
2017-Sep-08 12:30N 51°16' E 004°21'0 0.0
2017-Sep-08 03:00N 51°16' E 004°21'0 0.0
2017-Sep-08 02:27N 51°16' E 004°21'0 0.0
2017-Sep-08 02:00N 51°16' E 004°21'0 0.0
2017-Sep-08 00:13N 51°16' E 004°21'0 0.0
2017-Sep-07 22:35N 51°16' E 004°21'0 0.0
2017-Sep-07 22:11N 51°16' E 004°21'0 0.0
2017-Sep-07 19:55N 51°16' E 004°21'0 0.0
2017-Sep-07 02:46N 51°16' E 004°21'0 0.0
2017-Sep-06 09:29N 51°16' E 004°21'0 0.0
2017-Sep-05 16:41N 51°16' E 004°21'0 0.0
2017-Sep-05 16:29N 51°16' E 004°21'0 0.0
2017-Sep-05 00:25N 51°16' E 004°21'  

Dump ship's entire track history